Time;durP1;ratioP1;P1;durP2;ratioP2;P2;SDS_P1;SDS_P2;PMS_P1;PMS_P2;Temp;Humidity;BMP_temperature;BMP_pressure;BME280_temperature;BME280_humidity;BME280_pressure;Samples;Min_cycle;Max_cycle;Signal;HPM_P1;HPM_P2
2022/05/25 00:01:04;;;;;;;4.07;2.10;;;10.80;99.90;;;;;;5030750;28;20025;-66
2022/05/25 00:03:32;;;;;;;4.82;2.97;;;10.80;99.90;;;;;;5030378;28;20033;-66
2022/05/25 00:06:04;;;;;;;3.92;2.13;;;10.80;99.90;;;;;;5033311;28;20064;-66
2022/05/25 00:08:31;;;;;;;7.65;2.30;;;10.80;99.90;;;;;;5030402;28;20128;-66
2022/05/25 00:10:57;;;;;;;5.25;2.28;;;10.80;99.90;;;;;;5030134;28;20424;-66
2022/05/25 00:13:23;;;;;;;8.18;2.42;;;10.80;99.90;;;;;;5028306;28;20041;-66
2022/05/25 00:15:49;;;;;;;5.30;1.90;;;10.80;99.90;;;;;;5030187;28;20045;-66
2022/05/25 00:18:14;;;;;;;5.70;2.47;;;10.80;99.90;;;;;;5030358;28;20032;-66
2022/05/25 00:20:40;;;;;;;4.25;2.30;;;10.80;99.90;;;;;;5028845;28;20116;-67
2022/05/25 00:23:06;;;;;;;3.53;1.92;;;10.80;99.90;;;;;;5029474;28;20029;-66
2022/05/25 00:25:34;;;;;;;4.55;2.10;;;10.80;99.90;;;;;;5026400;28;20116;-68
2022/05/25 00:28:02;;;;;;;2.97;1.70;;;10.80;99.90;;;;;;5028676;28;20035;-66
2022/05/25 00:30:29;;;;;;;4.80;1.85;;;10.80;99.90;;;;;;5029370;28;20033;-66
2022/05/25 00:32:56;;;;;;;7.00;2.05;;;10.80;99.90;;;;;;5027714;28;20490;-67
2022/05/25 00:35:24;;;;;;;5.15;2.05;;;10.80;99.90;;;;;;5029290;28;20087;-67
2022/05/25 00:37:50;;;;;;;6.05;1.83;;;10.80;99.90;;;;;;5029589;28;20056;-66
2022/05/25 00:40:27;;;;;;;5.95;1.90;;;10.80;99.90;;;;;;5029750;28;20469;-66
2022/05/25 00:42:52;;;;;;;5.15;2.60;;;10.80;99.90;;;;;;5028737;28;20049;-66
2022/05/25 00:45:18;;;;;;;3.13;1.77;;;10.70;99.90;;;;;;5029327;28;20037;-67
2022/05/25 00:47:49;;;;;;;3.40;2.00;;;10.70;99.90;;;;;;5027352;28;20043;-67
2022/05/25 00:50:16;;;;;;;;;;;10.70;99.90;;;;;;5030093;28;20044;-66
2022/05/25 00:52:46;;;;;;;5.00;1.77;;;10.70;99.90;;;;;;5027775;28;20789;-67
2022/05/25 00:55:18;;;;;;;4.78;1.63;;;10.70;99.90;;;;;;5029593;28;21011;-66
2022/05/25 00:57:47;;;;;;;5.22;1.83;;;10.70;99.90;;;;;;5026084;28;20036;-67
2022/05/25 01:00:23;;;;;;;8.48;2.63;;;10.60;99.90;;;;;;5023073;28;20045;-67
2022/05/25 01:02:53;;;;;;;4.45;1.90;;;10.60;99.90;;;;;;5027531;28;20033;-67
2022/05/25 01:05:34;;;;;;;5.43;2.05;;;10.60;99.90;;;;;;5029483;28;20152;-66
2022/05/25 01:08:25;;;;;;;3.55;2.00;;;10.60;99.90;;;;;;5028122;28;20041;-67
2022/05/25 01:11:23;;;;;;;4.43;2.30;;;10.60;99.90;;;;;;5025143;28;20038;-66
2022/05/25 01:14:16;;;;;;;9.02;2.30;;;10.60;99.90;;;;;;5022861;28;20049;-67
2022/05/25 01:16:58;;;;;;;7.45;2.30;;;10.70;99.90;;;;;;5022661;28;20029;-67
2022/05/25 01:19:45;;;;;;;6.07;2.45;;;10.70;99.90;;;;;;5026276;28;20037;-67
2022/05/25 01:22:29;;;;;;;7.85;1.48;;;10.70;99.90;;;;;;5022345;28;20516;-66
2022/05/25 01:25:22;;;;;;;7.50;2.40;;;10.70;99.90;;;;;;5025505;28;20076;-67
2022/05/25 01:27:50;;;;;;;7.32;1.90;;;10.70;99.90;;;;;;5014464;28;20099;-67
2022/05/25 01:30:36;;;;;;;8.13;2.45;;;10.70;99.90;;;;;;5028557;28;20033;-68
2022/05/25 01:33:04;;;;;;;5.95;2.38;;;10.70;99.90;;;;;;5027281;28;20112;-66
2022/05/25 01:35:55;;;;;;;4.60;1.52;;;10.70;99.90;;;;;;5028382;28;20056;-66
2022/05/25 01:38:39;;;;;;;3.60;1.90;;;10.60;99.90;;;;;;5027782;28;20038;-67
2022/05/25 01:41:51;;;;;;;3.58;2.00;;;10.60;99.90;;;;;;5021562;28;20042;-67
2022/05/25 01:44:22;;;;;;;4.85;2.28;;;10.60;99.90;;;;;;5023079;28;20124;-67
2022/05/25 01:46:56;;;;;;;7.72;2.05;;;10.60;99.90;;;;;;5027030;28;20094;-67
2022/05/25 01:49:28;;;;;;;6.32;2.00;;;10.60;99.90;;;;;;5027945;28;20405;-67
2022/05/25 01:52:01;;;;;;;6.00;2.30;;;10.60;99.90;;;;;;5026806;28;20037;-66
2022/05/25 01:54:31;;;;;;;5.78;1.88;;;10.60;99.90;;;;;;5018972;28;20525;-67
2022/05/25 01:57:03;;;;;;;6.03;1.77;;;10.60;99.90;;;;;;5027877;28;20037;-66
2022/05/25 01:59:28;;;;;;;4.38;1.70;;;10.60;99.90;;;;;;5025545;28;20116;-66
2022/05/25 02:04:45;;;;;;;3.42;1.90;;;10.60;99.90;;;;;;5013824;28;20108;-66
2022/05/25 02:07:20;;;;;;;6.53;2.10;;;10.60;99.90;;;;;;5027236;28;20030;-66
2022/05/25 02:10:04;;;;;;;7.25;1.80;;;10.60;99.90;;;;;;5027181;28;20090;-67
2022/05/25 02:12:36;;;;;;;7.68;2.80;;;10.60;99.90;;;;;;5026863;28;20075;-66
2022/05/25 02:15:17;;;;;;;8.80;2.20;;;10.60;99.90;;;;;;5019578;28;20039;-66
2022/05/25 02:17:45;;;;;;;4.25;2.08;;;10.50;99.90;;;;;;5014054;28;20029;-67
2022/05/25 02:20:35;;;;;;;6.82;1.90;;;10.50;99.90;;;;;;5028074;28;20029;-66
2022/05/25 02:23:14;;;;;;;6.30;2.37;;;10.50;99.90;;;;;;5016857;28;20029;-66
2022/05/25 02:25:42;;;;;;;4.97;2.13;;;10.50;99.90;;;;;;5020649;28;20072;-67
2022/05/25 02:28:15;;;;;;;4.25;2.35;;;10.50;99.90;;;;;;5027749;28;20039;-66
2022/05/25 02:30:49;;;;;;;9.48;2.63;;;10.50;99.90;;;;;;5027164;28;20026;-66
2022/05/25 02:33:43;;;;;;;6.85;2.55;;;10.50;99.90;;;;;;5026052;28;20072;-67
2022/05/25 02:36:11;;;;;;;6.10;2.28;;;10.50;99.90;;;;;;5021049;28;20048;-67
2022/05/25 02:38:39;;;;;;;4.03;2.25;;;10.40;99.90;;;;;;5028145;28;20096;-66
2022/05/25 02:41:08;;;;;;;4.85;2.72;;;10.40;99.90;;;;;;5027799;28;20029;-66
2022/05/25 02:43:38;;;;;;;6.68;2.97;;;10.40;99.90;;;;;;5026615;28;20040;-66
2022/05/25 02:46:08;;;;;;;5.57;2.70;;;10.40;99.90;;;;;;5027885;28;20049;-67
2022/05/25 02:48:37;;;;;;;7.30;2.88;;;10.40;99.90;;;;;;5027898;28;20057;-66
2022/05/25 02:51:03;;;;;;;10.90;3.53;;;10.40;99.90;;;;;;5027375;28;20069;-66
2022/05/25 02:53:28;;;;;;;10.75;2.88;;;10.40;99.90;;;;;;5018146;28;20057;-66
2022/05/25 02:55:54;;;;;;;10.88;2.80;;;10.40;99.90;;;;;;5027920;28;20430;-66
2022/05/25 02:58:19;;;;;;;8.88;3.33;;;10.40;99.90;;;;;;5030465;28;20095;-66
2022/05/25 03:00:45;;;;;;;11.00;3.75;;;10.30;99.90;;;;;;5031637;28;20398;-66
2022/05/25 03:03:12;;;;;;;8.25;3.03;;;10.30;99.90;;;;;;5031086;28;20489;-67
2022/05/25 03:05:39;;;;;;;10.00;3.45;;;10.30;99.90;;;;;;5031095;28;20036;-66
2022/05/25 03:08:05;;;;;;;11.77;3.80;;;10.30;99.90;;;;;;5031550;28;20037;-66
2022/05/25 03:10:32;;;;;;;14.82;3.17;;;10.30;99.90;;;;;;5030773;28;20133;-66
2022/05/25 03:12:57;;;;;;;9.57;3.40;;;10.30;99.90;;;;;;5029399;28;20059;-66
2022/05/25 03:15:23;;;;;;;9.60;3.72;;;10.30;99.90;;;;;;5029173;28;20049;-67
2022/05/25 03:17:49;;;;;;;7.70;3.35;;;10.30;99.90;;;;;;5028754;28;20125;-66
2022/05/25 03:20:15;;;;;;;9.25;3.30;;;10.30;99.90;;;;;;5027504;28;20045;-66
2022/05/25 03:22:44;;;;;;;6.00;3.47;;;10.30;99.90;;;;;;5028745;28;20131;-66
2022/05/25 03:25:11;;;;;;;9.38;3.03;;;10.30;99.90;;;;;;5030874;28;20481;-67
2022/05/25 03:27:37;;;;;;;8.55;2.85;;;10.30;99.90;;;;;;5030411;28;21300;-66
2022/05/25 03:30:05;;;;;;;12.73;3.72;;;10.30;99.90;;;;;;5029627;28;20116;-68
2022/05/25 03:32:30;;;;;;;8.45;3.70;;;10.30;99.90;;;;;;5029687;28;20440;-67
2022/05/25 03:34:57;;;;;;;10.23;2.80;;;10.30;99.90;;;;;;5031116;28;20504;-66
2022/05/25 03:37:23;;;;;;;10.10;3.20;;;10.30;99.90;;;;;;5030404;28;20057;-67
2022/05/25 03:39:48;;;;;;;9.18;2.88;;;10.30;99.90;;;;;;5030422;28;20065;-66
2022/05/25 03:42:16;;;;;;;7.13;2.67;;;10.30;99.90;;;;;;5031504;28;20112;-66
2022/05/25 03:44:42;;;;;;;8.43;2.72;;;10.30;99.90;;;;;;5029569;28;20485;-66
2022/05/25 03:47:08;;;;;;;8.25;3.20;;;10.30;99.90;;;;;;5030939;28;20033;-66
2022/05/25 03:49:34;;;;;;;4.95;2.55;;;10.30;99.90;;;;;;5030389;28;20057;-67
2022/05/25 03:52:00;;;;;;;7.68;2.15;;;10.30;99.90;;;;;;5030766;28;20029;-68
2022/05/25 03:54:25;;;;;;;8.38;3.00;;;10.30;99.90;;;;;;5021524;28;20041;-66
2022/05/25 03:56:52;;;;;;;8.80;3.40;;;10.30;99.90;;;;;;5030030;28;20074;-66
2022/05/25 03:59:18;;;;;;;9.43;3.63;;;10.30;99.90;;;;;;5029830;28;20583;-67
2022/05/25 04:01:44;;;;;;;12.30;3.22;;;10.30;99.90;;;;;;5029819;28;20044;-67
2022/05/25 04:04:10;;;;;;;6.38;3.00;;;10.30;99.90;;;;;;5029935;28;20064;-66
2022/05/25 04:06:35;;;;;;;6.85;3.08;;;10.30;99.90;;;;;;5028223;28;20029;-66
2022/05/25 04:09:02;;;;;;;7.40;3.45;;;10.30;99.90;;;;;;5028795;28;20046;-66
2022/05/25 04:11:28;;;;;;;9.43;3.42;;;10.40;99.90;;;;;;5028355;28;20087;-67
2022/05/25 04:13:53;;;;;;;7.57;3.10;;;10.40;99.90;;;;;;5020216;28;20052;-66
2022/05/25 04:16:19;;;;;;;6.65;3.38;;;10.40;99.90;;;;;;5030010;28;20034;-67
2022/05/25 04:18:45;;;;;;;9.02;3.20;;;10.40;99.90;;;;;;5026158;28;20025;-66
2022/05/25 04:21:10;;;;;;;7.10;3.20;;;10.40;99.90;;;;;;5030239;28;20393;-67
2022/05/25 04:23:36;;;;;;;9.10;2.70;;;10.40;99.90;;;;;;5029544;28;20052;-67
2022/05/25 04:26:02;;;;;;;7.75;2.88;;;10.40;99.90;;;;;;5023648;28;20137;-67
2022/05/25 04:28:27;;;;;;;10.45;3.25;;;10.50;99.90;;;;;;5029332;28;20072;-67
2022/05/25 04:30:53;;;;;;;8.32;2.70;;;10.50;99.90;;;;;;5020815;28;20771;-66
2022/05/25 04:33:19;;;;;;;9.82;2.75;;;10.40;99.90;;;;;;5010160;28;20041;-66
2022/05/25 04:35:44;;;;;;;11.23;3.22;;;10.50;99.90;;;;;;5013340;28;20030;-66
2022/05/25 04:38:14;;;;;;;11.90;3.38;;;10.50;99.90;;;;;;5013430;28;20026;-66
2022/05/25 04:40:44;;;;;;;8.30;3.10;;;10.50;99.90;;;;;;5009050;28;20789;-68
2022/05/25 04:43:15;;;;;;;9.45;2.60;;;10.60;99.90;;;;;;5013010;28;20041;-67
2022/05/25 04:45:43;;;;;;;11.25;2.90;;;10.60;99.90;;;;;;5014858;28;20041;-67
2022/05/25 04:48:09;;;;;;;9.30;3.00;;;10.60;99.90;;;;;;5018128;28;20109;-68
2022/05/25 04:50:40;;;;;;;9.25;3.40;;;10.70;99.90;;;;;;5016882;28;20072;-66
2022/05/25 04:53:07;;;;;;;6.63;3.05;;;10.70;99.90;;;;;;5013877;28;20044;-66
2022/05/25 04:58:29;;;;;;;6.50;3.58;;;10.80;99.90;;;;;;5020654;28;20563;-67
2022/05/25 05:00:54;;;;;;;7.03;3.38;;;10.90;99.90;;;;;;4999994;28;20137;-66
2022/05/25 05:03:22;;;;;;;11.77;3.25;;;11.00;99.90;;;;;;5011581;28;20125;-66
2022/05/25 05:05:48;;;;;;;7.28;3.35;;;11.00;99.90;;;;;;5015512;28;20505;-67
2022/05/25 05:08:14;;;;;;;7.18;3.67;;;11.10;99.90;;;;;;5018117;28;20068;-68
2022/05/25 05:10:40;;;;;;;6.25;3.13;;;11.20;99.90;;;;;;5012954;28;20107;-66
2022/05/25 05:13:07;;;;;;;8.45;4.15;;;11.20;99.90;;;;;;5013724;28;20144;-67
2022/05/25 05:15:39;;;;;;;11.27;3.50;;;11.30;99.90;;;;;;5009221;28;20670;-67
2022/05/25 05:18:05;;;;;;;9.40;3.67;;;11.30;99.90;;;;;;5006045;28;20490;-68
2022/05/25 05:20:31;;;;;;;9.50;3.63;;;11.40;99.90;;;;;;5008072;28;20048;-66
2022/05/25 05:22:57;;;;;;;8.10;3.78;;;11.40;99.90;;;;;;5009795;28;20111;-66
2022/05/25 05:25:23;;;;;;;10.80;3.53;;;11.50;99.90;;;;;;5009277;28;20544;-67
2022/05/25 05:27:48;;;;;;;8.43;3.50;;;11.50;99.90;;;;;;5010794;28;20055;-66
2022/05/25 05:30:20;;;;;;;14.85;4.60;;;11.60;99.90;;;;;;5007031;28;20049;-67
2022/05/25 05:32:45;;;;;;;7.82;3.85;;;11.70;99.90;;;;;;5001216;28;20639;-67
2022/05/25 05:35:11;;;;;;;8.98;4.22;;;11.80;99.90;;;;;;5005445;28;20038;-67
2022/05/25 05:37:47;;;;;;;7.72;3.55;;;12.10;99.90;;;;;;5011671;28;20351;-67
2022/05/25 05:40:16;;;;;;;8.75;4.20;;;12.30;99.90;;;;;;5010464;28;20046;-70
2022/05/25 05:42:44;;;;;;;8.07;4.50;;;12.50;99.90;;;;;;5002377;28;20410;-67
2022/05/25 05:45:15;;;;;;;6.80;2.88;;;12.70;99.90;;;;;;5008744;28;20034;-67
2022/05/25 05:47:52;;;;;;;9.82;4.13;;;13.10;99.90;;;;;;5013058;28;20045;-67
2022/05/25 05:50:20;;;;;;;7.43;3.00;;;13.50;99.90;;;;;;5004522;28;20021;-67
2022/05/25 05:52:47;;;;;;;12.55;2.95;;;13.90;99.90;;;;;;5006706;28;20042;-67
2022/05/25 05:55:13;;;;;;;8.65;2.50;;;14.40;99.90;;;;;;5013059;28;20045;-67
2022/05/25 05:57:39;;;;;;;7.68;3.28;;;14.70;99.90;;;;;;5007867;28;20731;-67
2022/05/25 06:00:07;;;;;;;6.28;2.33;;;14.80;99.90;;;;;;5006240;28;20041;-68
2022/05/25 06:02:32;;;;;;;11.98;2.75;;;15.20;99.90;;;;;;5010096;28;20044;-67
2022/05/25 06:04:58;;;;;;;5.40;2.67;;;15.70;99.90;;;;;;5013037;28;20290;-69
2022/05/25 06:07:24;;;;;;;8.00;2.80;;;16.10;99.90;;;;;;5008197;28;20040;-69
2022/05/25 06:09:49;;;;;;;4.82;2.15;;;16.30;99.90;;;;;;5011458;28;20049;-69
2022/05/25 06:12:15;;;;;;;7.22;2.55;;;16.60;99.90;;;;;;5011062;28;20459;-69
2022/05/25 06:14:41;;;;;;;5.63;2.53;;;16.80;99.90;;;;;;5009104;28;20033;-69
2022/05/25 06:20:05;;;;;;;5.38;2.55;;;17.00;99.90;;;;;;4984311;28;20034;-69
2022/05/25 06:22:32;;;;;;;7.95;2.58;;;17.20;99.90;;;;;;5011301;28;20084;-69
2022/05/25 06:24:58;;;;;;;5.00;2.63;;;17.40;99.90;;;;;;5003668;28;20053;-70
2022/05/25 06:27:24;;;;;;;5.97;2.50;;;17.40;99.90;;;;;;5010274;28;20030;-70
2022/05/25 06:29:50;;;;;;;8.93;2.50;;;17.60;99.90;;;;;;5008569;28;20039;-69
2022/05/25 06:32:19;;;;;;;6.97;2.45;;;17.50;99.90;;;;;;5009202;28;20167;-70
2022/05/25 06:34:48;;;;;;;8.52;2.40;;;17.20;99.90;;;;;;5006487;28;20038;-69
2022/05/25 06:37:16;;;;;;;9.18;3.15;;;17.00;99.90;;;;;;5014228;28;20056;-70
2022/05/25 06:39:42;;;;;;;9.30;3.30;;;16.70;99.90;;;;;;5012950;28;20030;-68
2022/05/25 06:42:08;;;;;;;7.82;3.22;;;16.50;99.90;;;;;;5009601;28;20036;-66
2022/05/25 06:44:34;;;;;;;4.95;3.50;;;16.00;99.90;;;;;;5010952;28;20030;-66
2022/05/25 06:47:00;;;;;;;7.82;3.65;;;15.90;99.90;;;;;;5014232;28;20038;-66
2022/05/25 06:49:25;;;;;;;7.45;3.83;;;15.90;99.90;;;;;;5009609;28;20032;-66
2022/05/25 06:51:51;;;;;;;6.70;3.85;;;16.50;99.90;;;;;;5011382;28;20056;-67
2022/05/25 06:54:18;;;;;;;10.15;3.50;;;16.80;99.90;;;;;;5010871;28;20045;-67
2022/05/25 06:56:44;;;;;;;10.00;3.80;;;17.00;99.90;;;;;;5008027;28;20034;-67
2022/05/25 06:59:10;;;;;;;7.78;3.83;;;17.00;99.90;;;;;;5007918;28;20099;-67
2022/05/25 07:01:37;;;;;;;11.32;4.07;;;16.70;99.90;;;;;;5008358;28;20096;-66
2022/05/25 07:04:03;;;;;;;9.65;3.97;;;16.40;99.90;;;;;;5008553;28;20038;-66
2022/05/25 07:06:29;;;;;;;13.95;4.32;;;15.90;99.90;;;;;;5011025;28;20140;-67
2022/05/25 07:08:55;;;;;;;7.68;4.45;;;15.80;99.90;;;;;;5015750;28;20193;-66
2022/05/25 07:11:26;;;;;;;17.15;5.35;;;15.70;99.90;;;;;;5011628;28;20066;-66
2022/05/25 07:13:52;;;;;;;10.38;4.55;;;15.70;99.90;;;;;;5006469;28;20048;-66
2022/05/25 07:16:19;;;;;;;14.50;4.97;;;15.90;99.90;;;;;;5015526;28;20425;-69
2022/05/25 07:18:46;;;;;;;8.98;4.95;;;16.60;99.90;;;;;;5011647;28;20087;-67
2022/05/25 07:21:16;;;;;;;8.27;4.53;;;16.90;99.90;;;;;;5008248;28;20117;-68
2022/05/25 07:23:43;;;;;;;12.00;5.40;;;16.80;99.90;;;;;;5009812;28;20181;-68
2022/05/25 07:26:10;;;;;;;11.20;4.72;;;16.50;99.90;;;;;;5006567;28;20041;-68
2022/05/25 07:28:36;;;;;;;10.95;4.75;;;16.30;99.90;;;;;;5004931;28;20037;-68
2022/05/25 07:31:10;;;;;;;8.15;4.07;;;16.30;99.90;;;;;;5006504;28;20042;-67
2022/05/25 07:33:38;;;;;;;9.52;4.50;;;16.20;99.90;;;;;;5009610;28;20045;-68
2022/05/25 07:36:06;;;;;;;8.85;4.28;;;17.00;99.90;;;;;;5010531;28;20037;-68
2022/05/25 07:38:33;;;;;;;13.90;4.97;;;18.50;99.90;;;;;;5005279;28;20033;-68
2022/05/25 07:41:00;;;;;;;6.82;4.03;;;18.80;99.90;;;;;;5008923;28;20045;-69
2022/05/25 07:43:29;;;;;;;9.93;4.63;;;18.70;99.90;;;;;;5009372;28;20034;-68
2022/05/25 07:45:55;;;;;;;14.02;4.97;;;18.60;99.90;;;;;;5011143;28;20741;-68
2022/05/25 07:48:20;;;;;;;6.88;3.63;;;19.50;99.90;;;;;;5009319;28;20053;-68
2022/05/25 07:50:46;;;;;;;10.40;4.20;;;20.30;99.90;;;;;;5013083;28;20044;-69
2022/05/25 07:56:00;;;;;;;10.07;5.05;;;19.80;99.90;;;;;;5007386;28;20123;-68
2022/05/25 07:58:26;;;;;;;9.63;4.80;;;19.10;99.90;;;;;;5008424;28;20061;-68
2022/05/25 08:00:55;;;;;;;13.88;4.68;;;18.80;99.90;;;;;;5009578;28;20076;-66
2022/05/25 08:06:06;;;;;;;11.02;4.63;;;17.80;99.90;;;;;;5008996;28;20072;-68
2022/05/25 08:08:32;;;;;;;11.57;4.78;;;17.50;99.90;;;;;;5013746;28;20475;-68
2022/05/25 08:11:08;;;;;;;10.90;4.65;;;17.30;99.90;;;;;;5011992;28;20608;-68
2022/05/25 08:13:36;;;;;;;8.07;4.32;;;17.40;99.90;;;;;;5010337;28;20096;-67
2022/05/25 08:16:02;;;;;;;10.18;4.65;;;17.40;99.90;;;;;;5010690;28;20671;-67
2022/05/25 08:18:28;;;;;;;10.75;3.72;;;17.50;99.90;;;;;;5011027;28;20033;-68
2022/05/25 08:20:53;;;;;;;9.35;4.63;;;17.80;99.90;;;;;;5007312;28;20057;-68
2022/05/25 08:23:19;;;;;;;10.70;4.35;;;18.10;99.90;;;;;;5009884;28;20039;-68
2022/05/25 08:25:46;;;;;;;10.98;4.25;;;18.30;99.90;;;;;;5010134;28;20455;-67
2022/05/25 08:28:12;;;;;;;6.82;3.50;;;18.30;99.90;;;;;;5011600;28;20037;-68
2022/05/25 08:30:40;;;;;;;8.35;3.90;;;18.10;99.90;;;;;;5009046;28;20505;-68
2022/05/25 08:33:06;;;;;;;9.55;3.15;;;18.10;99.90;;;;;;5009285;28;20051;-68
2022/05/25 08:35:32;;;;;;;8.20;3.70;;;18.20;99.90;;;;;;5009901;28;20034;-68
2022/05/25 08:37:58;;;;;;;5.95;3.45;;;18.50;99.90;;;;;;5011045;28;20045;-67
2022/05/25 08:40:27;;;;;;;8.50;3.38;;;18.60;99.90;;;;;;5012420;28;20033;-68
2022/05/25 08:43:07;;;;;;;6.82;3.67;;;18.60;99.90;;;;;;5009013;28;20084;-68
2022/05/25 08:45:42;;;;;;;13.55;4.07;;;18.80;99.90;;;;;;5009339;28;20045;-68
2022/05/25 08:48:11;;;;;;;5.95;2.55;;;19.00;99.90;;;;;;5007932;28;20133;-67
2022/05/25 08:50:38;;;;;;;6.00;2.85;;;19.20;99.90;;;;;;5011225;28;20524;-67
2022/05/25 08:53:07;;;;;;;8.07;3.45;;;19.40;99.90;;;;;;5009983;28;20041;-67
2022/05/25 08:56:02;;;;;;;7.05;2.45;;;19.40;99.90;;;;;;5010366;28;20045;-70
2022/05/25 08:58:38;;;;;;;4.40;2.25;;;19.60;99.90;;;;;;5005618;28;20037;-70
2022/05/25 09:01:06;;;;;;;5.55;2.00;;;19.70;99.90;;;;;;5009282;28;20038;-66
2022/05/25 09:03:47;;;;;;;3.95;1.60;;;19.80;99.90;;;;;;5008653;28;20163;-67
2022/05/25 09:06:31;;;;;;;7.75;2.28;;;20.00;99.90;;;;;;5005955;28;20026;-68
2022/05/25 09:09:03;;;;;;;6.20;2.08;;;20.00;99.90;;;;;;5004947;28;20125;-67
2022/05/25 09:11:48;;;;;;;3.53;1.50;;;19.70;99.90;;;;;;5020592;28;20115;-67
2022/05/25 09:14:23;;;;;;;2.47;1.08;;;19.70;99.90;;;;;;5019092;28;20037;-67
2022/05/25 09:16:51;;;;;;;5.38;1.25;;;19.70;99.90;;;;;;5010488;28;20509;-68
2022/05/25 09:19:21;;;;;;;4.43;1.45;;;19.60;99.90;;;;;;5012171;28;20643;-68
2022/05/25 09:21:57;;;;;;;2.65;1.13;;;19.80;99.90;;;;;;5013523;28;20125;-68
2022/05/25 09:24:26;;;;;;;4.18;1.58;;;19.90;99.90;;;;;;5006999;28;20050;-67
2022/05/25 09:26:52;;;;;;;2.55;0.90;;;20.00;99.90;;;;;;5007692;28;20048;-70
2022/05/25 09:29:19;;;;;;;3.90;0.38;;;20.10;99.90;;;;;;5010561;28;20044;-68
2022/05/25 09:31:53;;;;;;;2.92;0.60;;;20.20;99.90;;;;;;5011505;28;20121;-67
2022/05/25 09:34:47;;;;;;;1.75;0.52;;;20.00;99.90;;;;;;5008731;28;20037;-67
2022/05/25 09:37:34;;;;;;;1.73;0.50;;;20.10;99.90;;;;;;4994468;28;20037;-66
2022/05/25 09:40:10;;;;;;;3.33;0.28;;;20.00;99.90;;;;;;5007990;28;20065;-69
2022/05/25 09:42:37;;;;;;;1.40;0.47;;;20.00;99.90;;;;;;5010319;28;20030;-67
2022/05/25 09:45:16;;;;;;;1.30;0.40;;;20.20;99.90;;;;;;5008049;28;20030;-68
2022/05/25 09:47:45;;;;;;;5.20;0.60;;;20.30;99.90;;;;;;5006436;28;20445;-68
2022/05/25 09:50:24;;;;;;;2.42;0.52;;;20.50;98.90;;;;;;5009686;28;20049;-67
2022/05/25 09:52:52;;;;;;;3.92;0.82;;;20.60;98.90;;;;;;5006466;28;20507;-67
2022/05/25 09:55:28;;;;;;;1.95;0.20;;;20.80;99.40;;;;;;5005225;28;20176;-71
2022/05/25 09:58:04;;;;;;;2.03;0.25;;;20.90;97.70;;;;;;5007171;28;20042;-68
2022/05/25 10:00:33;;;;;;;1.88;0.35;;;20.70;98.90;;;;;;5011456;28;20571;-68
2022/05/25 10:03:11;;;;;;;5.80;0.52;;;20.80;98.00;;;;;;5004988;28;20140;-70
2022/05/25 10:05:53;;;;;;;2.22;0.22;;;20.90;97.30;;;;;;5003179;28;20557;-67
2022/05/25 10:08:39;;;;;;;2.65;0.43;;;21.00;96.90;;;;;;5006389;28;20033;-67
2022/05/25 10:11:32;;;;;;;1.60;0.30;;;21.10;96.80;;;;;;5009061;28;20087;-67
2022/05/25 10:14:24;;;;;;;2.83;0.45;;;21.20;98.50;;;;;;5007382;28;20037;-69
2022/05/25 10:16:51;;;;;;;0.98;0.25;;;21.40;95.70;;;;;;5000075;28;20607;-71
2022/05/25 10:19:18;;;;;;;3.35;0.85;;;21.40;95.10;;;;;;5006483;28;20040;-70
2022/05/25 10:22:02;;;;;;;2.20;0.30;;;21.50;94.20;;;;;;5010440;28;20548;-71
2022/05/25 10:24:57;;;;;;;0.35;0.20;;;21.20;94.90;;;;;;5004727;28;20116;-68
2022/05/25 10:27:34;;;;;;;5.55;0.20;;;21.00;95.80;;;;;;5007250;28;20501;-67
2022/05/25 10:38:44;;;;;;;2.75;0.40;;;20.30;95.50;;;;;;5009025;28;20040;-68
2022/05/25 10:44:20;;;;;;;4.10;0.38;;;20.50;94.70;;;;;;5006078;28;20405;-67
2022/05/25 10:46:55;;;;;;;1.40;0.65;;;20.20;95.60;;;;;;5008101;28;20084;-68
2022/05/25 10:49:37;;;;;;;3.00;0.30;;;19.90;96.00;;;;;;5010014;28;20056;-67
2022/05/25 10:52:26;;;;;;;2.05;0.20;;;19.80;96.40;;;;;;5007835;28;20037;-67
2022/05/25 10:54:52;;;;;;;2.15;0.38;;;19.70;97.20;;;;;;5005538;28;20053;-68
2022/05/25 10:57:36;;;;;;;2.78;0.45;;;19.50;96.40;;;;;;5003057;28;20038;-67
2022/05/25 11:00:28;;;;;;;3.30;0.40;;;19.30;95.90;;;;;;5002907;28;20073;-67
2022/05/25 11:03:21;;;;;;;2.80;0.28;;;19.50;97.30;;;;;;5006173;28;20041;-67
2022/05/25 11:05:57;;;;;;;9.20;0.50;;;19.80;96.40;;;;;;5004898;28;20041;-70
2022/05/25 11:08:40;;;;;;;0.85;0.10;;;20.00;95.50;;;;;;5006147;28;20038;-67
2022/05/25 11:11:15;;;;;;;2.33;0.38;;;20.00;95.50;;;;;;5005686;28;20022;-69
2022/05/25 11:13:41;;;;;;;3.28;0.20;;;20.10;96.00;;;;;;5003514;28;20322;-67
2022/05/25 11:16:34;;;;;;;2.72;0.25;;;20.20;94.70;;;;;;5002848;28;20560;-68
2022/05/25 11:19:25;;;;;;;2.72;0.75;;;20.20;95.00;;;;;;5005678;28;20042;-70
2022/05/25 11:22:03;;;;;;;1.17;0.30;;;20.30;95.80;;;;;;5012043;28;20046;-68
2022/05/25 11:24:46;;;;;;;0.90;0.35;;;20.40;94.00;;;;;;5009825;28;20128;-68
2022/05/25 11:27:30;;;;;;;3.80;0.10;;;20.40;92.50;;;;;;5007561;28;20084;-67
2022/05/25 11:30:39;;;;;;;1.95;0.10;;;20.40;92.80;;;;;;5011229;28;20112;-67
2022/05/25 11:33:26;;;;;;;1.77;0.10;;;20.50;92.60;;;;;;4975635;28;20056;-66
2022/05/25 11:36:21;;;;;;;2.55;0.50;;;20.30;93.30;;;;;;5006736;28;20069;-67
2022/05/25 11:39:09;;;;;;;2.13;0.30;;;20.40;94.00;;;;;;5000577;28;20038;-67
2022/05/25 11:41:53;;;;;;;2.15;0.30;;;20.70;93.90;;;;;;5003285;28;20037;-69
2022/05/25 11:44:43;;;;;;;0.70;0.03;;;20.90;93.30;;;;;;5008997;28;20520;-69
2022/05/25 11:47:27;;;;;;;;;;;21.00;93.40;;;;;;5007799;28;20117;-68
2022/05/25 11:49:59;;;;;;;0.82;0.00;;;21.00;91.60;;;;;;5012428;28;19913;-67
2022/05/25 11:52:55;;;;;;;1.80;0.10;;;20.90;92.30;;;;;;5006705;28;20034;-69
2022/05/25 11:55:31;;;;;;;3.60;0.15;;;20.80;92.00;;;;;;5008320;28;20050;-66
2022/05/25 11:58:00;;;;;;;1.67;0.20;;;20.70;91.70;;;;;;5025527;28;20033;-67
2022/05/25 12:00:59;;;;;;;0.47;0.00;;;20.60;90.80;;;;;;5025676;28;20034;-65
2022/05/25 12:03:46;;;;;;;0.52;0.10;;;20.50;91.90;;;;;;5027177;28;20042;-65
2022/05/25 12:06:15;;;;;;;3.55;0.10;;;20.30;92.70;;;;;;5011135;28;20042;-66
2022/05/25 12:08:55;;;;;;;1.80;0.40;;;20.10;92.10;;;;;;5012263;28;20060;-65
2022/05/25 12:11:26;;;;;;;1.50;0.20;;;20.00;92.60;;;;;;5011532;28;20033;-65
2022/05/25 12:14:25;;;;;;;2.28;0.32;;;20.00;92.00;;;;;;5010925;28;20041;-67
2022/05/25 12:16:56;;;;;;;1.98;0.43;;;19.80;92.80;;;;;;5012131;28;20060;-68
2022/05/25 12:19:27;;;;;;;3.25;0.85;;;19.60;93.30;;;;;;5013931;28;20038;-69
2022/05/25 12:21:55;;;;;;;2.53;0.50;;;19.30;93.00;;;;;;5012704;28;20096;-66
2022/05/25 12:24:26;;;;;;;4.13;0.45;;;19.10;94.20;;;;;;5017030;28;20485;-66
2022/05/25 12:26:54;;;;;;;1.58;0.20;;;19.10;94.00;;;;;;5011213;28;20401;-68
2022/05/25 12:29:26;;;;;;;5.32;0.50;;;19.20;93.80;;;;;;5013203;28;20073;-70
2022/05/25 12:31:55;;;;;;;2.88;0.40;;;19.50;94.40;;;;;;5015204;28;20445;-66
2022/05/25 12:34:35;;;;;;;0.80;0.22;;;20.00;93.80;;;;;;5014009;28;20694;-66
2022/05/25 12:37:03;;;;;;;3.28;0.47;;;20.10;94.20;;;;;;5011863;28;20136;-67
2022/05/25 12:39:47;;;;;;;1.55;0.30;;;20.10;93.90;;;;;;5009729;28;20034;-67
2022/05/25 12:42:24;;;;;;;1.63;0.30;;;20.30;94.60;;;;;;5012422;28;20080;-66
2022/05/25 12:50:54;;;;;;;3.72;0.68;;;20.70;93.80;;;;;;5009119;28;20512;-67
2022/05/25 12:53:25;;;;;;;5.10;1.05;;;20.70;95.00;;;;;;5007916;28;20594;-67
2022/05/25 12:56:18;;;;;;;2.00;0.55;;;20.80;94.10;;;;;;5023249;28;20037;-68
2022/05/25 12:58:46;;;;;;;2.83;0.40;;;20.70;94.00;;;;;;5022100;28;20047;-67
2022/05/25 13:01:15;;;;;;;4.80;0.52;;;20.60;95.30;;;;;;5006754;28;22192;-67
2022/05/25 13:03:46;;;;;;;4.95;0.65;;;20.40;95.20;;;;;;5007408;28;20034;-70
2022/05/25 13:06:21;;;;;;;4.45;0.88;;;20.30;95.00;;;;;;5012261;28;20413;-69
2022/05/25 13:08:47;;;;;;;6.07;1.25;;;20.30;95.50;;;;;;5000845;28;20458;-68
2022/05/25 13:11:27;;;;;;;8.30;1.25;;;20.20;95.50;;;;;;5006231;28;20099;-66
2022/05/25 13:13:53;;;;;;;2.35;0.50;;;20.10;95.70;;;;;;5004685;28;20080;-69
2022/05/25 13:16:40;;;;;;;3.72;1.00;;;19.90;96.20;;;;;;5011755;28;20070;-68
2022/05/25 13:19:33;;;;;;;4.97;0.52;;;19.80;96.40;;;;;;5010529;28;20040;-71
2022/05/25 13:22:14;;;;;;;2.55;0.65;;;19.80;96.60;;;;;;5007572;28;20034;-67
2022/05/25 13:24:54;;;;;;;3.40;0.40;;;19.90;96.30;;;;;;5012552;28;20473;-68
2022/05/25 13:27:45;;;;;;;2.08;0.40;;;20.10;96.50;;;;;;5012364;28;20057;-69
2022/05/25 13:30:17;;;;;;;3.03;0.40;;;20.20;96.40;;;;;;5008260;28;20576;-66
2022/05/25 13:32:46;;;;;;;5.13;0.60;;;20.20;97.20;;;;;;5009283;28;20049;-68
2022/05/25 13:35:39;;;;;;;8.05;0.52;;;20.00;96.20;;;;;;5009844;28;20034;-68
2022/05/25 13:38:23;;;;;;;4.10;0.38;;;19.80;96.30;;;;;;5014237;28;20533;-67
2022/05/25 13:40:55;;;;;;;3.78;0.60;;;19.70;96.60;;;;;;5012265;28;20034;-67
2022/05/25 13:43:56;;;;;;;4.72;0.52;;;19.90;97.20;;;;;;5009105;28;20386;-67